createdAt,value
2018-06-25T00:02:14.989Z,95945.00
2018-06-25T00:07:44.545Z,95934.00
2018-06-25T00:13:14.145Z,95941.00
2018-06-25T00:18:43.903Z,95948.00
2018-06-25T00:24:13.632Z,95953.00
2018-06-25T00:29:43.916Z,95945.00
2018-06-25T00:35:14.139Z,95949.00
2018-06-25T00:40:44.508Z,95953.00
2018-06-25T00:46:15.632Z,95947.00
2018-06-25T00:51:45.868Z,95947.00
2018-06-25T00:57:15.593Z,95960.00
2018-06-25T01:02:45.373Z,95948.00
2018-06-25T01:08:15.054Z,95955.00
2018-06-25T01:13:45.088Z,95966.00
2018-06-25T01:19:14.740Z,95954.00
2018-06-25T01:24:44.837Z,95956.00
2018-06-25T01:30:15.615Z,95954.00
2018-06-25T01:35:45.718Z,95948.00
2018-06-25T01:41:15.748Z,95959.00
2018-06-25T01:46:46.014Z,95951.00
2018-06-25T01:52:16.382Z,95960.00
2018-06-25T01:57:46.613Z,95955.00
2018-06-25T02:03:16.522Z,95950.00
2018-06-25T02:08:46.703Z,95945.00
2018-06-25T02:14:16.649Z,95952.00
2018-06-25T02:19:46.398Z,95958.00
2018-06-25T02:25:16.191Z,95957.00
2018-06-25T02:30:45.956Z,95958.00
2018-06-25T02:36:15.321Z,95966.00
2018-06-25T02:41:44.913Z,95964.00
2018-06-25T02:47:14.441Z,95962.00
2018-06-25T02:52:44.232Z,95958.00
2018-06-25T02:58:14.791Z,95959.00
2018-06-25T03:03:45.107Z,95961.00
2018-06-25T03:09:15.191Z,95966.00
2018-06-25T03:14:46.090Z,95964.00
2018-06-25T03:20:15.710Z,95966.00
2018-06-25T03:25:45.565Z,95975.00
2018-06-25T03:31:17.206Z,95976.00
2018-06-25T03:36:46.833Z,95980.00
2018-06-25T03:42:16.231Z,95989.00
2018-06-25T03:47:45.891Z,95992.00
2018-06-25T03:53:15.898Z,95992.00
2018-06-25T03:58:45.911Z,95993.00
2018-06-25T04:04:15.497Z,96007.00
2018-06-25T04:09:45.684Z,96006.00
2018-06-25T04:15:15.623Z,96016.00
2018-06-25T04:20:45.792Z,96017.00
2018-06-25T04:26:15.350Z,96012.00
2018-06-25T04:31:45.126Z,96028.00
2018-06-25T04:37:15.632Z,96032.00
2018-06-25T04:42:45.498Z,96040.00
2018-06-25T04:48:15.937Z,96034.00
2018-06-25T04:53:45.465Z,96038.00
2018-06-25T04:59:15.763Z,96051.00
2018-06-25T05:04:46.110Z,96058.00
2018-06-25T05:10:15.596Z,96060.00
2018-06-25T05:15:45.931Z,96048.00
2018-06-25T05:21:16.114Z,96054.00
2018-06-25T05:26:47.587Z,96045.00
2018-06-25T05:32:17.582Z,96051.00
2018-06-25T05:37:47.604Z,96059.00
2018-06-25T05:43:17.804Z,96064.00
2018-06-25T05:48:47.727Z,96069.00
2018-06-25T05:54:17.363Z,96076.00
2018-06-25T05:59:47.497Z,96079.00
2018-06-25T06:05:17.762Z,96083.00
2018-06-25T06:10:48.135Z,96088.00
2018-06-25T06:16:18.426Z,96090.00
2018-06-25T06:21:48.895Z,96102.00
2018-06-25T06:27:18.972Z,96099.00
2018-06-25T06:32:49.845Z,96096.00
2018-06-25T06:38:20.268Z,96099.00
2018-06-25T06:43:49.952Z,96108.00
2018-06-25T06:49:19.643Z,96113.00
2018-06-25T06:54:49.610Z,96113.00
2018-06-25T07:00:19.026Z,96118.00
2018-06-25T07:05:49.741Z,96117.00
2018-06-25T07:11:19.551Z,96120.00
2018-06-25T07:16:50.226Z,96124.00
2018-06-25T07:22:20.980Z,96113.00
2018-06-25T07:27:51.416Z,96112.00
2018-06-25T07:33:21.259Z,96110.00
2018-06-25T07:38:50.800Z,96107.00
2018-06-25T07:44:21.079Z,96105.00
2018-06-25T07:49:51.434Z,96109.00
2018-06-25T07:55:21.669Z,96117.00
2018-06-25T08:00:51.605Z,96119.00
2018-06-25T08:06:22.024Z,96114.00
2018-06-25T08:11:51.868Z,96115.00
2018-06-25T08:17:22.004Z,96132.00
2018-06-25T08:22:51.881Z,96133.00
2018-06-25T08:28:22.114Z,96135.00
2018-06-25T08:33:52.647Z,96138.00
2018-06-25T08:39:22.720Z,96144.00
2018-06-25T08:44:52.330Z,96154.00
2018-06-25T08:50:22.118Z,96151.00
2018-06-25T08:55:51.708Z,96152.00
2018-06-25T09:01:21.240Z,96159.00
2018-06-25T09:06:50.905Z,96158.00
2018-06-25T09:12:20.702Z,96164.00
2018-06-25T09:17:50.802Z,96165.00
2018-06-25T09:23:20.537Z,96169.00
2018-06-25T09:28:50.079Z,96175.00
2018-06-25T09:34:25.031Z,96178.00
2018-06-25T09:39:54.594Z,96182.00
2018-06-25T09:45:24.694Z,96184.00
2018-06-25T09:50:54.810Z,96194.00
2018-06-25T09:56:24.724Z,96205.00
2018-06-25T10:01:55.044Z,96205.00
2018-06-25T10:07:27.901Z,96215.00
2018-06-25T10:12:57.622Z,96217.00
2018-06-25T10:18:26.839Z,96219.00
2018-06-25T10:23:56.205Z,96212.00
2018-06-25T10:29:26.099Z,96213.00
2018-06-25T10:34:56.080Z,96219.00
2018-06-25T10:40:25.831Z,96211.00
2018-06-25T10:45:55.539Z,96217.00
2018-06-25T10:51:25.093Z,96213.00
2018-06-25T10:56:54.589Z,96213.00
2018-06-25T11:02:24.651Z,96214.00
2018-06-25T11:07:54.431Z,96218.00
2018-06-25T11:13:23.642Z,96214.00
2018-06-25T11:18:53.529Z,96200.00
2018-06-25T11:24:22.987Z,96213.00
2018-06-25T11:29:52.520Z,96201.00
2018-06-25T11:35:21.792Z,96214.00
2018-06-25T11:40:51.401Z,96220.00
2018-06-25T11:46:21.047Z,96213.00
2018-06-25T11:51:50.621Z,96214.00
2018-06-25T11:57:19.905Z,96210.00
2018-06-25T12:02:49.500Z,96214.00
2018-06-25T12:08:18.886Z,96206.00
2018-06-25T12:13:48.423Z,96214.00
2018-06-25T12:19:18.001Z,96209.00
2018-06-25T12:24:47.687Z,96211.00
2018-06-25T12:30:17.159Z,96208.00
2018-06-25T12:35:46.451Z,96210.00
2018-06-25T12:41:16.020Z,96214.00
2018-06-25T12:46:46.732Z,96211.00
2018-06-25T12:52:17.350Z,96215.00
2018-06-25T12:57:47.259Z,96220.00
2018-06-25T13:03:17.547Z,96222.00
2018-06-25T13:08:48.081Z,96239.00
2018-06-25T13:14:18.152Z,96223.00
2018-06-25T13:19:47.980Z,96220.00
2018-06-25T13:25:17.535Z,96231.00
2018-06-25T13:30:48.036Z,96236.00
2018-06-25T13:36:18.172Z,96232.00
2018-06-25T13:41:47.995Z,96222.00
2018-06-25T13:47:18.848Z,96214.00
2018-06-25T13:52:49.026Z,96212.00
2018-06-25T13:58:18.784Z,96209.00
2018-06-25T14:03:48.698Z,96219.00
2018-06-25T14:09:18.959Z,96217.00
2018-06-25T14:14:48.561Z,96211.00
2018-06-25T14:20:19.381Z,96215.00
2018-06-25T14:25:54.139Z,96214.00
2018-06-25T14:31:25.132Z,96214.00
2018-06-25T14:36:54.264Z,96211.00
2018-06-25T14:42:23.836Z,96211.00
2018-06-25T14:47:54.041Z,96215.00
2018-06-25T14:53:23.945Z,96209.00
2018-06-25T14:58:53.444Z,96208.00
2018-06-25T15:04:23.040Z,96211.00
2018-06-25T15:09:52.847Z,96213.00
2018-06-25T15:15:22.469Z,96217.00
2018-06-25T15:20:53.802Z,96210.00
2018-06-25T15:26:23.089Z,96203.00
2018-06-25T15:31:52.681Z,96200.00
2018-06-25T15:37:22.671Z,96192.00
2018-06-25T15:42:52.408Z,96193.00
2018-06-25T15:48:22.144Z,96194.00
2018-06-25T15:53:51.770Z,96194.00
2018-06-25T15:59:21.596Z,96187.00
2018-06-25T16:04:51.179Z,96192.00
2018-06-25T16:10:20.685Z,96182.00
2018-06-25T16:15:50.491Z,96186.00
2018-06-25T16:21:20.416Z,96191.00
2018-06-25T16:26:49.893Z,96193.00
2018-06-25T16:32:20.832Z,96184.00
2018-06-25T16:37:50.286Z,96189.00
2018-06-25T16:43:19.735Z,96191.00
2018-06-25T16:48:49.372Z,96189.00
2018-06-25T16:54:19.011Z,96185.00
2018-06-25T16:59:49.561Z,96181.00
2018-06-25T17:05:19.247Z,96182.00
2018-06-25T17:10:49.367Z,96180.00
2018-06-25T17:16:19.309Z,96179.00
2018-06-25T17:21:49.184Z,96182.00
2018-06-25T17:27:19.528Z,96183.00
2018-06-25T17:32:49.779Z,96189.00
2018-06-25T17:38:19.817Z,96184.00
2018-06-25T17:43:49.575Z,96183.00
2018-06-25T17:49:19.665Z,96190.00
2018-06-25T17:54:50.737Z,96189.00
2018-06-25T18:00:20.774Z,96195.00
2018-06-25T18:05:51.103Z,96194.00
2018-06-25T18:11:23.269Z,96190.00
2018-06-25T18:16:57.844Z,96193.00
2018-06-25T18:22:28.489Z,96197.00
2018-06-25T18:28:00.369Z,96199.00
2018-06-25T18:33:29.579Z,96192.00
2018-06-25T18:38:59.110Z,96198.00
2018-06-25T18:44:28.604Z,96194.00
2018-06-25T18:49:58.224Z,96197.00
2018-06-25T18:55:27.738Z,96212.00
2018-06-25T19:00:57.313Z,96216.00
2018-06-25T19:06:26.866Z,96216.00
2018-06-25T19:11:56.689Z,96218.00
2018-06-25T19:17:26.386Z,96222.00
2018-06-25T19:22:56.116Z,96231.00
2018-06-25T19:28:25.935Z,96230.00
2018-06-25T19:33:55.601Z,96230.00
2018-06-25T19:39:25.828Z,96244.00
2018-06-25T19:44:55.440Z,96245.00
2018-06-25T19:50:25.068Z,96249.00
2018-06-25T19:55:55.529Z,96254.00
2018-06-25T20:01:24.823Z,96258.00
2018-06-25T20:06:54.013Z,96251.00
2018-06-25T20:12:23.288Z,96259.00
2018-06-25T20:17:52.541Z,96270.00
2018-06-25T20:23:21.792Z,96272.00
2018-06-25T20:28:51.124Z,96264.00
2018-06-25T20:34:20.195Z,96271.00
2018-06-25T20:39:49.661Z,96271.00
2018-06-25T20:45:18.983Z,96259.00
2018-06-25T20:50:48.485Z,96267.00
2018-06-25T20:56:17.895Z,96270.00
2018-06-25T21:01:47.273Z,96272.00
2018-06-25T21:07:16.838Z,96269.00
2018-06-25T21:12:46.727Z,96274.00
2018-06-25T21:18:16.504Z,96278.00
2018-06-25T21:23:46.284Z,96265.00
2018-06-25T21:29:15.755Z,96278.00
2018-06-25T21:34:45.366Z,96270.00
2018-06-25T21:40:16.017Z,96280.00
2018-06-25T21:45:45.813Z,96277.00
2018-06-25T21:51:16.178Z,96272.00
2018-06-25T21:56:46.762Z,96280.00
2018-06-25T22:02:16.792Z,96285.00
2018-06-25T22:07:48.120Z,96276.00
2018-06-25T22:13:17.636Z,96269.00
2018-06-25T22:18:47.084Z,96276.00
2018-06-25T22:24:16.481Z,96274.00
2018-06-25T22:29:46.469Z,96279.00
2018-06-25T22:35:18.448Z,96275.00
2018-06-25T22:40:48.098Z,96272.00
2018-06-25T22:46:17.733Z,96276.00
2018-06-25T22:51:47.567Z,96281.00
2018-06-25T22:57:17.615Z,96280.00
2018-06-25T23:02:47.013Z,96271.00
2018-06-25T23:09:19.060Z,96277.00
2018-06-25T23:14:48.483Z,96270.00
2018-06-25T23:20:17.893Z,96260.00
2018-06-25T23:25:47.386Z,96259.00
2018-06-25T23:31:16.910Z,96264.00
2018-06-25T23:36:46.298Z,96263.00
2018-06-25T23:42:15.691Z,96267.00
2018-06-25T23:48:47.990Z,96272.00
2018-06-25T23:54:17.392Z,96269.00
2018-06-25T23:59:46.949Z,96262.00
